Time;durP1;ratioP1;P1;durP2;ratioP2;P2;SDS_P1;SDS_P2;PMS_P1;PMS_P2;Temp;Humidity;BMP_temperature;BMP_pressure;BME280_temperature;BME280_humidity;BME280_pressure;Samples;Min_cycle;Max_cycle;Signal;HPM_P1;HPM_P2
2024/04/02 00:03:26;;;;;;;4.93;2.10;;;;;;;8.80;100.00;98776.75;10528773;28;20096;-40
2024/04/02 00:08:28;;;;;;;4.35;2.10;;;;;;;8.75;100.00;98773.22;10527378;28;20036;-41
2024/04/02 00:13:29;;;;;;;5.97;2.05;;;;;;;8.72;100.00;98782.72;10528112;28;20040;-43
2024/04/02 00:18:29;;;;;;;4.53;2.00;;;;;;;8.66;100.00;98793.03;10525403;28;20040;-42
2024/04/02 00:23:30;;;;;;;6.82;2.15;;;;;;;8.62;100.00;98786.91;10523856;28;20035;-39
2024/04/02 00:28:31;;;;;;;3.40;2.13;;;;;;;8.54;100.00;98798.97;10521770;28;20094;-40
2024/04/02 00:33:31;;;;;;;6.35;2.08;;;;;;;8.48;100.00;98797.16;10521534;28;20542;-40
2024/04/02 00:38:32;;;;;;;3.92;2.00;;;;;;;8.46;100.00;98795.38;10520549;28;20035;-40
2024/04/02 00:43:33;;;;;;;3.10;1.90;;;;;;;8.40;100.00;98797.88;10520319;28;20040;-39
2024/04/02 00:48:33;;;;;;;3.92;1.90;;;;;;;8.33;100.00;98802.09;10517938;28;20040;-40
2024/04/02 00:53:34;;;;;;;3.58;1.95;;;;;;;8.27;100.00;98815.00;10516334;28;20059;-40
2024/04/02 00:58:35;;;;;;;4.30;1.98;;;;;;;8.29;100.00;98821.13;10517912;28;20055;-40
2024/04/02 01:03:35;;;;;;;4.32;1.88;;;;;;;8.23;100.00;98821.00;10516143;28;20040;-41
2024/04/02 01:08:36;;;;;;;5.00;2.10;;;;;;;8.16;100.00;98830.44;10513514;28;20039;-41
2024/04/02 01:13:37;;;;;;;4.20;1.83;;;;;;;8.16;100.00;98833.06;10512484;28;20036;-39
2024/04/02 01:18:37;;;;;;;4.20;1.90;;;;;;;8.18;100.00;98825.25;10515128;28;20055;-40
2024/04/02 01:23:38;;;;;;;3.42;1.83;;;;;;;8.24;100.00;98833.16;10495824;28;20126;-41
2024/04/02 01:28:39;;;;;;;3.08;1.70;;;;;;;8.27;100.00;98838.41;10512954;28;20044;-38
2024/04/02 01:33:39;;;;;;;3.65;1.63;;;;;;;8.29;100.00;98831.53;10519353;28;20028;-40
2024/04/02 01:38:40;;;;;;;4.55;1.60;;;;;;;8.27;100.00;98835.81;10527968;28;20489;-40
2024/04/02 01:43:40;;;;;;;5.28;1.88;;;;;;;8.30;100.00;98846.28;10526820;28;20044;-42
2024/04/02 01:48:41;;;;;;;5.88;1.70;;;;;;;8.31;100.00;98840.25;10525433;28;20040;-40
2024/04/02 01:53:42;;;;;;;3.55;1.90;;;;;;;8.32;100.00;98839.38;10524143;28;20039;-42
2024/04/02 01:58:43;;;;;;;4.78;1.60;;;;;;;8.30;100.00;98841.94;10524390;28;20093;-40
2024/04/02 02:03:43;;;;;;;3.78;1.80;;;;;;;8.33;100.00;98852.41;10520265;28;20455;-39
2024/04/02 02:08:44;;;;;;;5.20;2.10;;;;;;;8.32;100.00;98855.00;10522561;28;20047;-41
2024/04/02 02:13:45;;;;;;;4.95;1.83;;;;;;;8.31;100.00;98861.94;10519966;28;20040;-39
2024/04/02 02:18:45;;;;;;;6.30;1.58;;;;;;;8.35;100.00;98860.25;10520217;28;20051;-40
2024/04/02 02:23:46;;;;;;;5.47;1.60;;;;;;;8.29;100.00;98867.97;10522032;28;20176;-41
2024/04/02 02:28:47;;;;;;;3.20;1.50;;;;;;;8.27;100.00;98867.06;10528941;28;20044;-39
2024/04/02 02:33:48;;;;;;;2.28;1.30;;;;;;;8.25;100.00;98871.38;10520218;28;20075;-39
2024/04/02 02:38:48;;;;;;;4.72;1.42;;;;;;;8.30;100.00;98870.56;10521947;28;20051;-39
2024/04/02 02:43:49;;;;;;;6.32;1.60;;;;;;;8.22;100.00;98889.53;10520306;28;20044;-40
2024/04/02 02:48:49;;;;;;;3.33;1.30;;;;;;;8.20;100.00;98881.69;10518701;28;20097;-39
2024/04/02 02:53:50;;;;;;;5.70;1.50;;;;;;;8.19;100.00;98881.69;10518252;28;20512;-39
2024/04/02 02:58:51;;;;;;;2.60;1.48;;;;;;;8.21;100.00;98888.63;10506037;28;20043;-38
2024/04/02 03:03:52;;;;;;;3.65;1.55;;;;;;;8.21;100.00;98895.56;10514344;28;20067;-41
2024/04/02 03:08:52;;;;;;;3.70;1.40;;;;;;;8.22;100.00;98900.81;10514792;28;20498;-40
2024/04/02 03:13:53;;;;;;;4.88;1.60;;;;;;;8.17;100.00;98902.47;10495832;28;20044;-38
2024/04/02 03:18:54;;;;;;;5.15;1.60;;;;;;;8.14;100.00;98899.81;10525549;28;20523;-40
2024/04/02 03:23:55;;;;;;;4.80;1.50;;;;;;;8.17;100.00;98906.78;10532791;28;20127;-41
2024/04/02 03:28:55;;;;;;;3.75;1.50;;;;;;;8.16;100.00;98903.31;10531013;28;20572;-40
2024/04/02 03:33:59;;;;;;;3.65;1.63;;;;;;;8.14;100.00;98905.88;10529541;28;20039;-38
2024/04/02 03:38:59;;;;;;;2.92;1.40;;;;;;;8.14;100.00;98905.88;10528212;28;20047;-41
2024/04/02 03:44:00;;;;;;;6.57;1.95;;;;;;;8.13;100.00;98919.75;10529324;28;20044;-40
2024/04/02 03:49:01;;;;;;;3.05;1.67;;;;;;;8.09;100.00;98914.47;10525722;28;20036;-40
2024/04/02 03:54:01;;;;;;;3.83;1.60;;;;;;;8.09;100.00;98920.56;10525069;28;20436;-41
2024/04/02 03:59:02;;;;;;;4.70;2.00;;;;;;;8.09;100.00;98923.16;10523344;28;20044;-39
2024/04/02 04:04:03;;;;;;;4.10;1.52;;;;;;;8.13;100.00;98929.28;10522642;28;20040;-40
2024/04/02 04:09:04;;;;;;;4.15;1.75;;;;;;;8.10;100.00;98932.69;10518540;28;20110;-41
2024/04/02 04:14:04;;;;;;;3.70;1.70;;;;;;;8.05;100.00;98929.13;10519758;28;20044;-40
2024/04/02 04:19:05;;;;;;;5.07;1.80;;;;;;;8.00;100.00;98941.19;10500152;28;20040;-42
2024/04/02 04:24:06;;;;;;;3.45;1.55;;;;;;;8.00;100.00;98949.00;10502263;28;20036;-39
2024/04/02 04:29:06;;;;;;;6.50;1.92;;;;;;;8.02;100.00;98949.88;10516222;28;20460;-40
2024/04/02 04:34:07;;;;;;;7.55;1.70;;;;;;;7.98;100.00;98955.00;10496208;28;20071;-42
2024/04/02 04:39:08;;;;;;;4.30;1.63;;;;;;;7.95;100.00;98955.81;10514215;28;20036;-39
2024/04/02 04:44:08;;;;;;;3.70;1.50;;;;;;;8.00;100.00;98958.53;10510420;28;20536;-37
2024/04/02 04:49:09;;;;;;;3.38;1.50;;;;;;;7.95;100.00;98968.81;10511965;28;20045;-40
2024/04/02 04:54:09;;;;;;;2.58;1.50;;;;;;;7.99;100.00;98977.56;10510647;28;20039;-44
2024/04/02 04:59:10;;;;;;;4.70;1.65;;;;;;;7.97;100.00;98985.34;10513436;28;20528;-40
2024/04/02 05:04:11;;;;;;;9.80;2.13;;;;;;;8.05;100.00;98991.56;10525192;28;20555;-39
2024/04/02 05:09:11;;;;;;;2.60;1.55;;;;;;;8.03;100.00;98993.28;10528578;28;20047;-40
2024/04/02 05:14:12;;;;;;;6.00;1.70;;;;;;;8.03;100.00;98998.50;10526231;28;20389;-41
2024/04/02 05:19:13;;;;;;;6.03;2.00;;;;;;;7.99;100.00;98996.69;10525907;28;20036;-37
2024/04/02 05:24:13;;;;;;;4.55;1.83;;;;;;;8.00;100.00;99011.44;10525419;28;20040;-40
2024/04/02 05:29:16;;;;;;;4.95;1.90;;;;;;;8.03;100.00;99019.31;10519549;28;20493;-40
2024/04/02 05:34:17;;;;;;;3.90;2.10;;;;;;;8.04;100.00;99027.97;10522781;28;20054;-42
2024/04/02 05:39:17;;;;;;;8.68;2.42;;;;;;;8.04;100.00;99027.97;10521732;28;20407;-40
2024/04/02 05:44:18;;;;;;;3.90;2.42;;;;;;;8.05;100.00;99032.31;10520436;28;20048;-40
2024/04/02 05:49:19;;;;;;;6.10;2.60;;;;;;;8.05;100.00;99029.72;10521511;28;20048;-40
2024/04/02 05:54:19;;;;;;;7.18;2.40;;;;;;;8.08;100.00;99043.66;10519675;28;20047;-41
2024/04/02 05:59:20;;;;;;;7.95;2.30;;;;;;;8.12;100.00;99045.50;10525323;28;20032;-39
2024/04/02 06:04:21;;;;;;;6.82;2.60;;;;;;;8.14;100.00;99040.31;10521074;28;20039;-42
2024/04/02 06:09:21;;;;;;;6.00;2.58;;;;;;;8.14;100.00;99049.00;10523318;28;20539;-40
2024/04/02 06:14:22;;;;;;;7.20;2.50;;;;;;;8.19;100.00;99046.50;10522002;28;20117;-41
2024/04/02 06:19:23;;;;;;;7.18;2.55;;;;;;;8.23;100.00;99052.66;10522440;28;20226;-40
2024/04/02 06:24:24;;;;;;;5.80;2.40;;;;;;;8.24;100.00;99062.19;10515641;28;20047;-37
2024/04/02 06:29:25;;;;;;;8.48;2.85;;;;;;;8.25;100.00;99066.56;10518639;28;20036;-40
2024/04/02 06:34:25;;;;;;;6.38;2.72;;;;;;;8.22;100.00;99074.31;10517361;28;20043;-40
2024/04/02 06:39:26;;;;;;;6.38;2.83;;;;;;;8.19;100.00;99079.47;10515527;28;20491;-39
2024/04/02 06:44:26;;;;;;;6.57;3.08;;;;;;;8.20;100.00;99086.41;10514744;28;20032;-40
2024/04/02 06:49:27;;;;;;;5.82;3.20;;;;;;;8.14;100.00;99090.63;10530521;28;20051;-42
2024/04/02 06:54:28;;;;;;;7.60;3.00;;;;;;;8.16;100.00;99098.50;10530559;28;20032;-37
2024/04/02 06:59:29;;;;;;;8.65;3.00;;;;;;;8.14;100.00;99098.44;10532144;28;20036;-40
2024/04/02 07:04:31;;;;;;;11.40;4.38;;;;;;;8.12;100.00;99102.75;10530880;28;20050;-42
2024/04/02 07:09:33;;;;;;;9.18;3.90;;;;;;;8.09;100.00;99107.03;10526746;28;20044;-41
2024/04/02 07:14:34;;;;;;;9.43;3.50;;;;;;;7.95;100.00;99124.91;10528626;28;20028;-42
2024/04/02 07:19:35;;;;;;;10.73;4.05;;;;;;;7.93;100.00;99136.13;10526169;28;20509;-40
2024/04/02 07:24:35;;;;;;;10.18;4.07;;;;;;;7.86;100.00;99132.50;10528305;28;20101;-38
2024/04/02 07:29:36;;;;;;;10.60;4.30;;;;;;;7.82;100.00;99151.50;10524524;28;20172;-40
2024/04/02 07:34:37;;;;;;;14.63;4.43;;;;;;;7.84;100.00;99149.84;10523921;28;20405;-39
2024/04/02 07:39:37;;;;;;;12.10;4.80;;;;;;;7.88;100.00;99155.13;10519356;28;20032;-41
2024/04/02 07:44:38;;;;;;;14.57;5.30;;;;;;;7.95;100.00;99160.47;10521797;28;20040;-39
2024/04/02 07:49:39;;;;;;;10.32;4.93;;;;;;;8.04;100.00;99174.56;10520447;28;20044;-41
2024/04/02 07:54:39;;;;;;;11.82;5.28;;;;;;;8.05;100.00;99173.72;10520555;28;20039;-39
2024/04/02 07:59:40;;;;;;;13.18;5.10;;;;;;;8.09;100.00;99177.28;10501459;28;20493;-39
2024/04/02 08:04:41;;;;;;;8.75;4.53;;;;;;;8.18;100.00;99177.47;10497255;28;20059;-45
2024/04/02 08:09:41;;;;;;;10.45;4.82;;;;;;;8.35;100.00;99183.06;10514974;28;20048;-41
2024/04/02 08:14:42;;;;;;;9.60;4.50;;;;;;;8.43;100.00;99178.91;10517677;28;20059;-40
2024/04/02 08:19:43;;;;;;;11.38;4.70;;;;;;;8.45;100.00;99187.63;10511734;28;20043;-39
2024/04/02 08:24:44;;;;;;;13.60;5.20;;;;;;;8.63;100.00;99184.53;10513450;28;20036;-40
2024/04/02 08:29:45;;;;;;;12.45;4.97;;;;;;;8.75;100.00;99197.81;10506194;28;20051;-39
2024/04/02 08:34:45;;;;;;;13.75;5.35;;;;;;;8.85;100.00;99188.44;10526186;28;20036;-38
2024/04/02 08:39:46;;;;;;;10.05;4.55;;;;;;;8.85;100.00;99193.66;10528353;28;20036;-39
2024/04/02 08:44:47;;;;;;;14.45;4.43;;;;;;;8.89;100.00;99208.50;10524542;28;20036;-39
2024/04/02 08:49:47;;;;;;;13.40;4.57;;;;;;;8.97;100.00;99219.06;10525372;28;20616;-39
2024/04/02 08:54:48;;;;;;;10.95;4.00;;;;;;;9.09;100.00;99226.25;10505442;28;20433;-39
2024/04/02 08:59:49;;;;;;;10.70;3.50;;;;;;;9.20;100.00;99224.75;10521228;28;20040;-39
2024/04/02 09:04:50;;;;;;;13.77;4.10;;;;;;;9.19;100.00;99221.22;10521940;28;20413;-39
2024/04/02 09:09:51;;;;;;;12.40;3.50;;;;;;;9.15;100.00;99224.63;10503332;28;20059;-39
2024/04/02 09:14:52;;;;;;;16.52;3.90;;;;;;;9.19;100.00;99230.78;10519690;28;20036;-39
2024/04/02 09:19:53;;;;;;;12.93;3.97;;;;;;;9.17;100.00;99235.09;10519382;28;20044;-38
2024/04/02 09:24:53;;;;;;;10.10;3.53;;;;;;;8.97;100.00;99243.38;10517257;28;20040;-38
2024/04/02 09:29:54;;;;;;;15.20;3.53;;;;;;;8.84;100.00;99242.25;10515739;28;20051;-39
2024/04/02 09:34:54;;;;;;;11.00;3.28;;;;;;;8.73;100.00;99246.38;10515384;28;20406;-39
2024/04/02 09:39:55;;;;;;;14.35;3.25;;;;;;;8.75;100.00;99252.53;10514025;28;20448;-39
2024/04/02 09:44:56;;;;;;;9.52;2.90;;;;;;;8.74;100.00;99249.88;10512873;28;20082;-39
2024/04/02 09:49:57;;;;;;;9.13;2.88;;;;;;;8.70;100.00;99258.47;10508933;28;20413;-39
2024/04/02 09:54:58;;;;;;;10.82;2.92;;;;;;;8.80;100.00;99265.63;10510261;28;20052;-39
2024/04/02 09:59:58;;;;;;;11.65;2.67;;;;;;;8.99;100.00;99264.28;10498728;28;20040;-39
2024/04/02 10:04:59;;;;;;;11.43;2.83;;;;;;;9.22;100.00;99267.34;10487960;28;20036;-39
2024/04/02 10:10:00;;;;;;;10.77;2.72;;;;;;;9.44;100.00;99256.44;10509428;28;20510;-40
2024/04/02 10:15:04;;;;;;;10.75;2.40;;;;;;;9.70;100.00;99253.41;10514147;28;20303;-40
2024/04/02 10:20:17;;;;;;;11.27;2.28;;;;;;;9.52;100.00;99254.00;10527221;28;20036;-40
2024/04/02 10:25:18;;;;;;;11.10;2.42;;;;;;;9.43;100.00;99254.69;10520088;28;20136;-39
2024/04/02 10:30:25;;;;;;;7.60;2.28;;;;;;;9.38;100.00;99245.03;10503093;28;20101;-39
2024/04/02 10:35:29;;;;;;;9.73;2.10;;;;;;;9.46;100.00;99249.53;10523123;28;20077;-39
2024/04/02 10:40:31;;;;;;;11.07;2.17;;;;;;;9.53;100.00;99251.41;10521287;28;20032;-40
2024/04/02 10:45:31;;;;;;;9.10;2.10;;;;;;;9.66;100.00;99243.78;10525165;28;20083;-39
2024/04/02 10:50:32;;;;;;;13.52;2.50;;;;;;;9.64;100.00;99256.84;10509274;28;20071;-39
2024/04/02 10:55:32;;;;;;;6.40;1.60;;;;;;;9.65;100.00;99257.69;10524948;28;20040;-39
2024/04/02 11:00:33;;;;;;;8.80;2.13;;;;;;;9.59;100.00;99261.06;10509847;28;20035;-39
2024/04/02 11:05:34;;;;;;;5.50;1.70;;;;;;;9.57;100.00;99249.72;10508399;28;20032;-39
2024/04/02 11:10:34;;;;;;;5.13;1.80;;;;;;;9.46;100.00;99259.97;10472342;28;20043;-39
2024/04/02 11:15:35;;;;;;;6.60;2.10;;;;;;;9.51;100.00;99252.22;10506846;28;20038;-39
2024/04/02 11:20:36;;;;;;;8.35;2.03;;;;;;;9.47;100.00;99250.41;10505269;28;20043;-39
2024/04/02 11:25:36;;;;;;;12.90;2.78;;;;;;;9.54;100.00;99267.94;10508045;28;20061;-39
2024/04/02 11:30:38;;;;;;;7.13;1.95;;;;;;;9.67;100.00;99255.97;10518047;28;20109;-38
2024/04/02 11:35:38;;;;;;;6.70;2.40;;;;;;;9.71;100.00;99257.81;10512954;28;20044;-37
2024/04/02 11:40:39;;;;;;;6.38;2.10;;;;;;;9.70;100.00;99258.66;10515383;28;20063;-39
2024/04/02 11:45:40;;;;;;;8.93;1.98;;;;;;;9.68;100.00;99253.41;10512495;28;20093;-40
2024/04/02 11:50:40;;;;;;;7.22;2.10;;;;;;;9.85;100.00;99258.03;10512449;28;20529;-39
2024/04/02 11:55:49;;;;;;;6.30;1.90;;;;;;;10.01;100.00;99254.81;10511214;28;20039;-39
2024/04/02 12:00:50;;;;;;;9.52;1.80;;;;;;;10.21;100.00;99260.34;10515822;28;20040;-39
2024/04/02 12:05:50;;;;;;;7.85;1.80;;;;;;;10.31;100.00;99257.06;10529561;28;20036;-38
2024/04/02 12:10:51;;;;;;;5.95;1.70;;;;;;;10.29;100.00;99248.31;10528841;28;20032;-37
2024/04/02 12:15:52;;;;;;;5.70;1.77;;;;;;;10.30;100.00;99251.81;10526288;28;20089;-39
2024/04/02 12:20:53;;;;;;;3.50;1.40;;;;;;;10.31;100.00;99251.84;10523446;28;20394;-40
2024/04/02 12:25:53;;;;;;;6.05;1.80;;;;;;;10.30;100.00;99251.81;10524822;28;20036;-37
2024/04/02 12:30:57;;;;;;;5.43;1.50;;;;;;;10.33;100.00;99250.13;10505948;28;20040;-39
2024/04/02 12:35:58;;;;;;;7.10;1.70;;;;;;;10.52;100.00;99253.88;10523335;28;20028;-39
2024/04/02 12:41:08;;;;;;;8.18;1.85;;;;;;;10.61;100.00;99243.53;10504374;28;20040;-40
2024/04/02 12:46:08;;;;;;;4.63;1.55;;;;;;;10.51;100.00;99248.63;10519903;28;20086;-38
2024/04/02 12:51:09;;;;;;;5.55;1.45;;;;;;;10.44;100.00;99245.06;10516290;28;20044;-39
2024/04/02 12:56:10;;;;;;;5.07;1.40;;;;;;;10.25;100.00;99263.91;10516165;28;20043;-39
2024/04/02 13:01:11;;;;;;;3.50;1.70;;;;;;;10.30;100.00;99259.63;10517172;28;20109;-39
2024/04/02 13:06:11;;;;;;;5.75;1.75;;;;;;;10.11;100.00;99276.72;10493297;28;20592;-40
2024/04/02 13:11:12;;;;;;;7.28;1.90;;;;;;;9.82;100.00;99292.78;10515035;28;20048;-39
2024/04/02 13:16:18;;;;;;;7.07;1.80;;;;;;;9.68;100.00;99292.53;10499353;28;20032;-39
2024/04/02 13:21:19;;;;;;;4.85;2.30;;;;;;;9.48;100.00;99293.91;10502895;28;20047;-39
2024/04/02 13:26:20;;;;;;;6.88;2.88;;;;;;;9.54;100.00;99309.66;10512252;28;20052;-39
2024/04/02 13:31:21;;;;;;;5.03;2.45;;;;;;;9.46;100.00;99301.72;10511068;28;20066;-40
2024/04/02 13:36:22;;;;;;;6.32;2.67;;;;;;;9.32;100.00;99308.38;10511541;28;20124;-39
2024/04/02 13:41:32;;;;;;;6.72;1.88;;;;;;;9.43;100.00;99316.41;10458823;28;20423;-39
2024/04/02 13:46:35;;;;;;;4.55;2.08;;;;;;;9.45;100.00;99313.00;10492267;28;20044;-39
2024/04/02 13:51:36;;;;;;;7.70;2.40;;;;;;;9.48;100.00;99310.44;10524577;28;20440;-39
2024/04/02 13:56:36;;;;;;;5.97;2.42;;;;;;;9.39;100.00;99319.81;10526763;28;20044;-40
2024/04/02 14:01:37;;;;;;;7.40;2.25;;;;;;;9.23;100.00;99316.03;10519425;28;20048;-39
2024/04/02 14:06:38;;;;;;;4.22;2.42;;;;;;;9.01;100.00;99332.97;10514166;28;20044;-40
2024/04/02 14:11:39;;;;;;;6.13;2.92;;;;;;;8.93;100.00;99327.56;10524359;28;20044;-39
2024/04/02 14:16:40;;;;;;;8.05;3.17;;;;;;;8.79;100.00;99329.00;10524196;28;20043;-39
2024/04/02 14:21:40;;;;;;;9.98;3.50;;;;;;;8.99;100.00;99330.31;10499600;28;20040;-38
2024/04/02 14:26:48;;;;;;;7.10;2.90;;;;;;;9.61;100.00;99321.09;10520390;28;20048;-39
2024/04/02 14:31:51;;;;;;;4.47;2.00;;;;;;;9.47;100.00;99313.88;10500847;28;20141;-39
2024/04/02 14:36:52;;;;;;;7.10;2.60;;;;;;;9.37;100.00;99321.50;10534247;28;20101;-38
2024/04/02 14:41:54;;;;;;;5.20;2.78;;;;;;;9.30;100.00;99323.13;10527260;28;20043;-37
2024/04/02 14:46:55;;;;;;;9.32;3.20;;;;;;;9.30;100.00;99320.53;10519951;28;20047;-39
2024/04/02 14:51:56;;;;;;;7.50;2.60;;;;;;;9.23;100.00;99309.09;10523605;28;20036;-38
2024/04/02 14:57:01;;;;;;;5.40;2.58;;;;;;;9.27;100.00;99300.47;10482063;28;20040;-37
2024/04/02 15:02:10;;;;;;;8.77;2.20;;;;;;;9.58;100.00;99292.34;10515913;28;20033;-39
2024/04/02 15:07:11;;;;;;;6.50;1.80;;;;;;;9.84;100.00;99298.91;10517505;28;20036;-39
2024/04/02 15:12:11;;;;;;;6.68;2.10;;;;;;;9.74;100.00;99289.19;10516802;28;20037;-38
2024/04/02 15:17:12;;;;;;;7.88;2.20;;;;;;;9.76;100.00;99292.66;10516376;28;20032;-38
2024/04/02 15:22:13;;;;;;;6.22;1.75;;;;;;;9.65;100.00;99295.09;10514124;28;20040;-38
2024/04/02 15:27:13;;;;;;;5.78;2.10;;;;;;;9.76;100.00;99283.09;10508377;28;20055;-39
2024/04/02 15:32:15;;;;;;;7.30;2.50;;;;;;;9.75;100.00;99277.88;10524136;28;20040;-38
2024/04/02 15:37:16;;;;;;;7.45;2.47;;;;;;;9.74;100.00;99281.34;10531578;28;20520;-38
2024/04/02 15:42:20;;;;;;;6.25;2.42;;;;;;;9.74;100.00;99282.22;10530762;28;20452;-38
2024/04/02 15:47:21;;;;;;;6.03;2.25;;;;;;;9.77;100.00;99282.28;10527290;28;20040;-38
2024/04/02 15:52:22;;;;;;;7.00;2.55;;;;;;;9.94;100.00;99281.69;10527613;28;20040;-39
2024/04/02 15:57:22;;;;;;;11.18;2.60;;;;;;;9.99;100.00;99261.75;10525769;28;20025;-38
2024/04/02 16:02:23;;;;;;;9.65;2.50;;;;;;;9.99;100.00;99273.06;10525782;28;20563;-39
2024/04/02 16:07:23;;;;;;;7.90;2.40;;;;;;;9.96;100.00;99275.63;10525374;28;20040;-39
2024/04/02 16:12:24;;;;;;;7.63;2.30;;;;;;;9.82;100.00;99281.47;10523377;28;20036;-38
2024/04/02 16:17:31;;;;;;;7.80;2.20;;;;;;;9.76;100.00;99275.28;10518058;28;20040;-39
2024/04/02 16:22:41;;;;;;;6.63;2.13;;;;;;;9.75;100.00;99275.28;10371635;28;20486;-38
2024/04/02 16:27:48;;;;;;;7.03;2.60;;;;;;;9.72;100.00;99290.88;10477143;28;20067;-38
2024/04/02 16:32:48;;;;;;;7.30;2.53;;;;;;;9.74;100.00;99291.78;10517870;28;20069;-38
2024/04/02 16:38:03;;;;;;;9.75;2.67;;;;;;;9.64;100.00;99288.13;10519126;28;20040;-39
2024/04/02 16:43:03;;;;;;;7.85;2.53;;;;;;;9.55;100.00;99290.56;10515729;28;20509;-39
2024/04/02 16:48:09;;;;;;;7.88;2.30;;;;;;;9.56;100.00;99278.41;10503338;28;20044;-39
2024/04/02 16:53:10;;;;;;;10.00;2.75;;;;;;;9.51;100.00;99284.44;10492368;28;20035;-38
2024/04/02 16:58:10;;;;;;;9.95;3.00;;;;;;;9.51;100.00;99293.94;10524929;28;20040;-38
2024/04/02 17:03:11;;;;;;;9.57;4.05;;;;;;;9.49;100.00;99299.16;10523280;28;20044;-38
2024/04/02 17:08:12;;;;;;;11.70;2.80;;;;;;;9.49;100.00;99293.06;10503459;28;20410;-38
2024/04/02 17:13:14;;;;;;;6.03;2.35;;;;;;;9.48;100.00;99299.13;10511549;28;20074;-38
2024/04/02 17:18:14;;;;;;;8.82;2.53;;;;;;;9.45;100.00;99302.56;10522334;28;20047;-39
2024/04/02 17:23:15;;;;;;;9.23;3.00;;;;;;;9.33;100.00;99310.16;10528418;28;20090;-38
2024/04/02 17:28:15;;;;;;;7.88;3.08;;;;;;;9.26;100.00;99313.47;10527935;28;20040;-40
2024/04/02 17:33:16;;;;;;;18.67;6.35;;;;;;;9.16;100.00;99332.38;10526642;28;20039;-41
2024/04/02 17:38:17;;;;;;;10.82;3.40;;;;;;;9.12;100.00;99336.66;10524247;28;20036;-39
2024/04/02 17:43:17;;;;;;;9.75;3.30;;;;;;;9.07;100.00;99339.19;10518628;28;20075;-38
2024/04/02 17:48:18;;;;;;;12.73;4.28;;;;;;;9.07;100.00;99333.09;10523503;28;20033;-39
2024/04/02 17:53:19;;;;;;;9.75;4.03;;;;;;;9.01;100.00;99333.84;10534732;28;20524;-38
2024/04/02 17:58:19;;;;;;;18.40;5.03;;;;;;;8.99;100.00;99335.50;10512969;28;20528;-38
2024/04/02 18:03:24;;;;;;;13.35;4.85;;;;;;;8.99;100.00;99351.16;10523978;28;20032;-40
2024/04/02 18:08:26;;;;;;;13.90;4.25;;;;;;;9.09;100.00;99347.00;10534581;28;20059;-38
2024/04/02 18:13:28;;;;;;;10.55;4.00;;;;;;;9.13;100.00;99351.44;10517771;28;20039;-37
2024/04/02 18:18:29;;;;;;;12.80;4.00;;;;;;;9.16;100.00;99346.28;10534274;28;20533;-39
2024/04/02 18:23:29;;;;;;;13.43;3.72;;;;;;;9.18;100.00;99351.56;10536068;28;20043;-38
2024/04/02 18:28:30;;;;;;;14.63;3.70;;;;;;;9.20;100.00;99349.88;10531280;28;20036;-36
2024/04/02 18:33:31;;;;;;;9.98;3.30;;;;;;;9.19;100.00;99354.16;10531374;28;20051;-38
2024/04/02 18:38:32;;;;;;;9.27;2.88;;;;;;;9.20;100.00;99363.78;10532776;28;20413;-39
2024/04/02 18:43:36;;;;;;;7.97;3.40;;;;;;;9.20;100.00;99366.38;10533550;28;20039;-40
2024/04/02 18:48:36;;;;;;;8.38;3.25;;;;;;;9.18;100.00;99367.19;10519598;28;20509;-39
2024/04/02 18:53:37;;;;;;;12.30;4.43;;;;;;;9.15;100.00;99378.44;10530364;28;20071;-39
2024/04/02 18:58:37;;;;;;;9.73;3.80;;;;;;;9.14;100.00;99371.47;10511325;28;20052;-42
2024/04/02 19:03:38;;;;;;;11.82;3.80;;;;;;;9.16;100.00;99380.19;10515072;28;20153;-39
2024/04/02 19:08:45;;;;;;;9.45;3.45;;;;;;;9.19;100.00;99372.41;10483854;28;20057;-40
2024/04/02 19:13:50;;;;;;;10.70;3.55;;;;;;;9.21;100.00;99370.75;10500471;28;20113;-41
2024/04/02 19:18:52;;;;;;;8.77;3.17;;;;;;;9.22;100.00;99369.88;10556953;28;20088;-39
2024/04/02 19:23:52;;;;;;;10.02;3.40;;;;;;;9.16;100.00;99372.34;10499578;27;20040;-41
2024/04/02 19:28:53;;;;;;;11.30;3.40;;;;;;;9.09;100.00;99365.25;10523298;28;20094;-39
2024/04/02 19:33:55;;;;;;;11.43;3.58;;;;;;;8.94;100.00;99386.66;10501806;28;20414;-39
2024/04/02 19:39:05;;;;;;;11.68;3.90;;;;;;;8.89;100.00;99403.91;10479494;28;20115;-38
2024/04/02 19:44:10;;;;;;;13.75;4.03;;;;;;;8.84;100.00;99392.50;10404352;28;20115;-40
2024/04/02 19:49:15;;;;;;;14.95;4.10;;;;;;;8.84;100.00;99385.56;10516372;28;20060;-42
2024/04/02 19:54:22;;;;;;;13.55;4.20;;;;;;;8.84;100.00;99398.59;10480792;28;20509;-39
2024/04/02 19:59:24;;;;;;;18.60;5.28;;;;;;;8.84;100.00;99400.31;10470695;28;20036;-40
2024/04/02 20:04:24;;;;;;;17.45;5.13;;;;;;;8.81;100.00;99403.72;10477242;28;20044;-41
2024/04/02 20:09:25;;;;;;;14.18;4.78;;;;;;;8.82;100.00;99407.25;10510483;28;20059;-39
2024/04/02 20:14:26;;;;;;;17.30;5.13;;;;;;;8.84;100.00;99419.44;10520308;28;20036;-37
2024/04/02 20:19:26;;;;;;;15.35;5.85;;;;;;;8.82;100.00;99409.84;10535423;28;20641;-39
2024/04/02 20:24:28;;;;;;;16.92;5.57;;;;;;;8.80;100.00;99416.72;10546362;28;20077;-38
2024/04/02 20:29:28;;;;;;;18.77;6.13;;;;;;;8.72;100.00;99411.34;10528290;28;20055;-41
2024/04/02 20:34:29;;;;;;;15.90;6.32;;;;;;;8.75;100.00;99408.81;10512448;28;20037;-38
2024/04/02 20:39:30;;;;;;;15.07;5.85;;;;;;;8.75;100.00;99414.03;10473189;28;20047;-39
2024/04/02 20:44:35;;;;;;;17.15;5.65;;;;;;;8.69;100.00;99419.09;10507620;28;20105;-39
2024/04/02 20:49:36;;;;;;;17.42;5.70;;;;;;;8.71;100.00;99408.69;10511500;28;20097;-39
2024/04/02 20:54:38;;;;;;;19.50;6.25;;;;;;;8.70;100.00;99410.44;10518284;28;20079;-38
2024/04/02 20:59:41;;;;;;;17.25;6.03;;;;;;;8.72;100.00;99413.06;10512323;28;20037;-38
2024/04/02 21:04:47;;;;;;;19.52;6.45;;;;;;;8.74;100.00;99411.38;10520348;28;20063;-41
2024/04/02 21:09:48;;;;;;;23.92;6.72;;;;;;;8.73;100.00;99414.84;10488537;28;20045;-39
2024/04/02 21:14:59;;;;;;;19.35;6.65;;;;;;;8.78;100.00;99410.59;10460490;28;20093;-40
2024/04/02 21:20:09;;;;;;;18.20;6.53;;;;;;;8.71;100.00;99408.69;10471127;28;20036;-39
2024/04/02 21:25:14;;;;;;;17.90;6.68;;;;;;;8.65;100.00;99416.38;10504742;28;20375;-40
2024/04/02 21:30:16;;;;;;;20.25;6.38;;;;;;;8.58;100.00;99412.72;10507616;28;20447;-39
2024/04/02 21:35:18;;;;;;;21.88;6.82;;;;;;;8.51;100.00;99414.31;10514586;28;20051;-42
2024/04/02 21:40:22;;;;;;;17.40;6.30;;;;;;;8.45;100.00;99413.28;10489801;28;20036;-38
2024/04/02 21:45:24;;;;;;;20.63;6.30;;;;;;;8.43;100.00;99412.34;10495332;28;20032;-37
2024/04/02 21:50:25;;;;;;;16.75;6.38;;;;;;;8.40;100.00;99414.88;10518477;28;20636;-39
2024/04/02 21:55:28;;;;;;;15.32;6.47;;;;;;;8.37;100.00;99416.56;10503474;28;20035;-40
2024/04/02 22:00:29;;;;;;;15.93;5.68;;;;;;;8.36;100.00;99409.56;10519304;28;20032;-38
2024/04/02 22:05:31;;;;;;;16.23;5.55;;;;;;;8.34;100.00;99408.66;10506311;28;20041;-41
2024/04/02 22:10:32;;;;;;;15.88;5.88;;;;;;;8.31;100.00;99412.91;10511460;28;20158;-42
2024/04/02 22:15:33;;;;;;;20.17;5.93;;;;;;;8.27;100.00;99417.13;10514307;28;20036;-39
2024/04/02 22:20:35;;;;;;;18.48;5.93;;;;;;;8.26;100.00;99419.72;10509345;28;20424;-39
2024/04/02 22:25:36;;;;;;;17.15;5.70;;;;;;;8.30;100.00;99416.34;10512301;28;20401;-38
2024/04/02 22:30:36;;;;;;;15.50;5.05;;;;;;;8.22;100.00;99417.88;10515299;28;20047;-42
2024/04/02 22:35:37;;;;;;;12.77;4.60;;;;;;;8.28;100.00;99413.72;10526371;28;20052;-40
2024/04/02 22:40:37;;;;;;;16.00;4.20;;;;;;;8.30;100.00;99408.53;10533167;28;20048;-40
2024/04/02 22:45:38;;;;;;;14.55;4.63;;;;;;;8.33;100.00;99409.47;10528027;28;20040;-39
2024/04/02 22:50:39;;;;;;;16.13;4.63;;;;;;;8.37;100.00;99400.03;10512787;28;20036;-39
2024/04/02 22:55:39;;;;;;;13.57;4.00;;;;;;;8.35;100.00;99406.94;10529714;28;20433;-37
2024/04/02 23:00:43;;;;;;;14.25;4.32;;;;;;;8.43;100.00;99405.41;10510461;28;20059;-40
2024/04/02 23:05:43;;;;;;;16.85;3.83;;;;;;;8.44;100.00;99404.59;10518487;28;20036;-41
2024/04/02 23:10:44;;;;;;;14.00;4.18;;;;;;;8.46;100.00;99402.03;10525956;28;20048;-38
2024/04/02 23:15:45;;;;;;;19.70;4.22;;;;;;;8.43;100.00;99400.22;10520358;28;20040;-38